Time;durP1;ratioP1;P1;durP2;ratioP2;P2;SDS_P1;SDS_P2;PMS_P1;PMS_P2;Temp;Humidity;BMP_temperature;BMP_pressure;BME280_temperature;BME280_humidity;BME280_pressure;Samples;Min_cycle;Max_cycle;Signal;HPM_P1;HPM_P2
2023/04/16 00:02:12;;;;;;;5.75;3.10;;;;;;;;;;5036813;28;20033;-80
2023/04/16 00:04:38;;;;;;;3.78;2.97;;;;;;;;;;5032338;28;20049;-80
2023/04/16 00:07:04;;;;;;;4.03;2.50;;;;;;;;;;5036747;28;20034;-82
2023/04/16 00:09:31;;;;;;;4.30;2.75;;;;;;;;;;5037274;28;20373;-82
2023/04/16 00:11:57;;;;;;;5.88;2.70;;;;;;;;;;5013108;28;20046;-80
2023/04/16 00:14:24;;;;;;;3.88;2.67;;;;;;;;;;5038937;28;20060;-82
2023/04/16 00:16:50;;;;;;;3.83;2.22;;;;;;;;;;5039314;28;20093;-80
2023/04/16 00:19:21;;;;;;;3.22;2.40;;;;;;;;;;5047362;28;20057;-82
2023/04/16 00:21:47;;;;;;;4.95;2.90;;;;;;;;;;5056781;28;20038;-81
2023/04/16 00:24:13;;;;;;;3.47;2.30;;;;;;;;;;5037787;28;20025;-81
2023/04/16 00:26:39;;;;;;;4.05;2.13;;;;;;;;;;5019549;28;20033;-82
2023/04/16 00:29:09;;;;;;;2.30;1.80;;;;;;;;;;5035827;28;20446;-80
2023/04/16 00:31:37;;;;;;;3.90;2.00;;;;;;;;;;5037803;28;20068;-81
2023/04/16 00:34:03;;;;;;;4.05;1.73;;;;;;;;;;5039959;28;20380;-81
2023/04/16 00:36:29;;;;;;;2.47;1.88;;;;;;;;;;5032728;28;20057;-80
2023/04/16 00:38:56;;;;;;;3.78;2.10;;;;;;;;;;5032005;28;20029;-82
2023/04/16 00:41:22;;;;;;;3.65;2.13;;;;;;;;;;5025839;28;20112;-83
2023/04/16 00:43:50;;;;;;;3.40;1.70;;;;;;;;;;5033576;28;20100;-81
2023/04/16 00:46:16;;;;;;;3.65;1.90;;;;;;;;;;5028900;28;20675;-81
2023/04/16 00:48:43;;;;;;;3.10;2.00;;;;;;;;;;5035420;28;20090;-81
2023/04/16 00:51:10;;;;;;;2.42;1.52;;;;;;;;;;5018878;28;20045;-82
2023/04/16 00:53:37;;;;;;;4.90;2.30;;;;;;;;;;5039028;28;20025;-81
2023/04/16 00:56:03;;;;;;;2.65;1.65;;;;;;;;;;5048542;28;20038;-81
2023/04/16 00:58:30;;;;;;;2.50;1.63;;;;;;;;;;5052345;28;20006;-79
2023/04/16 01:00:56;;;;;;;2.30;1.60;;;;;;;;;;5051145;28;20093;-81
2023/04/16 01:03:22;;;;;;;4.07;2.17;;;;;;;;;;5041022;28;20037;-81
2023/04/16 01:05:49;;;;;;;2.75;1.80;;;;;;;;;;5054606;28;20533;-80
2023/04/16 01:08:17;;;;;;;3.10;1.90;;;;;;;;;;5050418;28;20025;-83
2023/04/16 01:10:46;;;;;;;2.70;1.60;;;;;;;;;;5047955;28;20026;-82
2023/04/16 01:13:12;;;;;;;3.47;2.08;;;;;;;;;;5035061;28;20029;-82
2023/04/16 01:15:39;;;;;;;4.85;2.80;;;;;;;;;;5044232;28;20037;-80
2023/04/16 01:18:15;;;;;;;1.95;1.55;;;;;;;;;;5037185;28;20124;-81
2023/04/16 01:20:42;;;;;;;2.90;1.50;;;;;;;;;;5040647;28;20115;-82
2023/04/16 01:23:08;;;;;;;2.67;1.50;;;;;;;;;;5049205;28;20030;-80
2023/04/16 01:25:34;;;;;;;3.40;1.80;;;;;;;;;;5030589;28;20041;-81
2023/04/16 01:28:02;;;;;;;2.28;1.50;;;;;;;;;;5046802;28;20033;-80
2023/04/16 01:30:28;;;;;;;2.60;1.67;;;;;;;;;;5040883;28;20041;-81
2023/04/16 01:32:54;;;;;;;2.92;1.30;;;;;;;;;;5049137;28;20021;-80
2023/04/16 01:35:20;;;;;;;2.58;1.60;;;;;;;;;;5043390;28;20038;-80
2023/04/16 01:37:49;;;;;;;3.38;2.00;;;;;;;;;;5036043;28;20650;-78
2023/04/16 01:40:16;;;;;;;3.22;2.20;;;;;;;;;;5056141;28;20026;-80
2023/04/16 01:42:42;;;;;;;3.72;2.05;;;;;;;;;;5052423;28;20053;-81
2023/04/16 01:45:11;;;;;;;3.22;1.92;;;;;;;;;;5048678;28;20033;-80
2023/04/16 01:47:37;;;;;;;3.10;1.80;;;;;;;;;;5045365;28;20022;-81
2023/04/16 01:50:12;;;;;;;2.45;1.80;;;;;;;;;;5049703;28;20025;-81
2023/04/16 01:52:39;;;;;;;2.83;1.90;;;;;;;;;;5039395;28;20026;-82
2023/04/16 01:55:12;;;;;;;2.40;1.70;;;;;;;;;;5043327;28;20033;-81
2023/04/16 01:57:56;;;;;;;3.13;1.70;;;;;;;;;;5033893;28;20128;-79
2023/04/16 02:00:27;;;;;;;3.88;1.85;;;;;;;;;;5039947;28;20029;-80
2023/04/16 02:02:53;;;;;;;2.90;1.80;;;;;;;;;;5043525;28;20029;-81
2023/04/16 02:05:19;;;;;;;3.60;1.90;;;;;;;;;;5030371;28;20725;-80
2023/04/16 02:07:46;;;;;;;4.72;2.25;;;;;;;;;;5033908;28;20546;-79
2023/04/16 02:10:13;;;;;;;3.00;1.77;;;;;;;;;;5033776;28;20033;-81
2023/04/16 02:12:40;;;;;;;3.15;2.17;;;;;;;;;;5036055;28;20094;-79
2023/04/16 02:15:07;;;;;;;3.28;1.85;;;;;;;;;;5027230;28;20074;-80
2023/04/16 02:17:33;;;;;;;2.50;1.70;;;;;;;;;;5024065;28;20025;-78
2023/04/16 02:20:01;;;;;;;3.17;1.88;;;;;;;;;;5030911;28;20036;-79
2023/04/16 02:22:27;;;;;;;2.83;1.88;;;;;;;;;;5032826;28;20026;-81
2023/04/16 02:24:54;;;;;;;4.53;2.72;;;;;;;;;;5035480;28;20025;-80
2023/04/16 02:27:20;;;;;;;3.03;1.98;;;;;;;;;;5034249;28;20030;-81
2023/04/16 02:29:46;;;;;;;4.10;2.10;;;;;;;;;;5027090;28;20029;-81
2023/04/16 02:32:12;;;;;;;3.13;1.83;;;;;;;;;;5046204;28;20052;-82
2023/04/16 02:34:45;;;;;;;4.38;2.20;;;;;;;;;;5036722;28;20045;-81
2023/04/16 02:37:31;;;;;;;3.20;2.08;;;;;;;;;;5034902;28;20037;-82
2023/04/16 02:40:03;;;;;;;3.55;2.20;;;;;;;;;;5028774;28;20484;-82
2023/04/16 02:42:29;;;;;;;3.38;2.10;;;;;;;;;;5031195;28;20034;-81
2023/04/16 02:44:55;;;;;;;3.08;2.00;;;;;;;;;;5036306;28;20033;-81
2023/04/16 02:47:21;;;;;;;3.47;2.20;;;;;;;;;;5032745;28;20040;-82
2023/04/16 02:49:47;;;;;;;4.25;2.42;;;;;;;;;;5033866;28;20053;-80
2023/04/16 02:52:13;;;;;;;6.07;2.20;;;;;;;;;;5054523;28;20021;-80
2023/04/16 02:54:39;;;;;;;4.45;2.05;;;;;;;;;;5049905;28;20021;-83
2023/04/16 02:57:05;;;;;;;3.30;2.03;;;;;;;;;;5046649;28;20014;-82
2023/04/16 02:59:32;;;;;;;6.40;2.00;;;;;;;;;;5304626;22;20023;-79
2023/04/16 03:01:58;;;;;;;3.83;2.00;;;;;;;;;;5063576;28;20023;-83
2023/04/16 03:04:24;;;;;;;3.47;2.00;;;;;;;;;;5056455;28;20035;-84
2023/04/16 03:06:50;;;;;;;4.43;2.42;;;;;;;;;;5052586;28;20048;-82
2023/04/16 03:09:16;;;;;;;3.55;2.03;;;;;;;;;;5051262;28;20081;-84
2023/04/16 03:11:42;;;;;;;3.67;2.22;;;;;;;;;;5040856;28;20030;-79
2023/04/16 03:14:08;;;;;;;4.82;2.13;;;;;;;;;;5041365;28;20026;-82
2023/04/16 03:16:37;;;;;;;3.60;1.95;;;;;;;;;;5051144;28;20032;-81
2023/04/16 03:19:03;;;;;;;5.22;2.72;;;;;;;;;;5047029;28;20025;-79
2023/04/16 03:21:30;;;;;;;6.53;2.35;;;;;;;;;;5038328;28;20037;-80
2023/04/16 03:23:56;;;;;;;4.45;2.92;;;;;;;;;;5049254;28;20032;-81
2023/04/16 03:26:23;;;;;;;5.68;3.10;;;;;;;;;;5035684;28;20049;-81
2023/04/16 03:28:49;;;;;;;4.10;2.45;;;;;;;;;;5036371;28;20028;-80
2023/04/16 03:31:16;;;;;;;4.88;2.67;;;;;;;;;;5032837;28;20467;-81
2023/04/16 03:33:42;;;;;;;4.18;2.50;;;;;;;;;;5036107;28;20026;-81
2023/04/16 03:36:08;;;;;;;4.00;2.20;;;;;;;;;;5032477;28;20113;-81
2023/04/16 03:38:37;;;;;;;4.50;2.42;;;;;;;;;;5028647;28;20021;-80
2023/04/16 03:41:03;;;;;;;3.72;2.10;;;;;;;;;;5047439;28;20026;-81
2023/04/16 03:43:29;;;;;;;4.03;2.30;;;;;;;;;;5014418;28;20037;-81
2023/04/16 03:45:56;;;;;;;3.72;2.28;;;;;;;;;;5033755;28;20026;-81
2023/04/16 03:48:22;;;;;;;4.80;3.00;;;;;;;;;;5033909;28;20037;-79
2023/04/16 03:50:48;;;;;;;5.43;2.42;;;;;;;;;;5040757;28;20028;-81
2023/04/16 03:53:14;;;;;;;4.30;2.47;;;;;;;;;;5029597;28;20026;-81
2023/04/16 03:55:41;;;;;;;5.32;2.45;;;;;;;;;;5027252;28;20487;-80
2023/04/16 03:58:07;;;;;;;5.45;2.88;;;;;;;;;;5034400;28;20033;-79
2023/04/16 04:00:33;;;;;;;4.63;2.78;;;;;;;;;;5030939;28;20029;-80
2023/04/16 04:02:59;;;;;;;5.53;2.92;;;;;;;;;;5038099;22;20086;-85
2023/04/16 04:05:25;;;;;;;5.55;3.00;;;;;;;;;;5020440;28;20066;-84
2023/04/16 04:07:51;;;;;;;5.13;3.15;;;;;;;;;;5019580;28;20029;-86
2023/04/16 04:10:18;;;;;;;6.20;2.85;;;;;;;;;;5019172;28;20042;-88
2023/04/16 04:12:44;;;;;;;6.25;2.97;;;;;;;;;;5022561;28;20022;-87
2023/04/16 04:15:10;;;;;;;5.65;3.22;;;;;;;;;;5016764;28;20497;-88
2023/04/16 04:17:36;;;;;;;6.53;3.20;;;;;;;;;;5020256;28;20041;-87
2023/04/16 04:20:03;;;;;;;6.00;2.67;;;;;;;;;;5017071;28;20054;-86
2023/04/16 04:22:29;;;;;;;4.80;2.80;;;;;;;;;;5015784;28;20026;-87
2023/04/16 04:24:55;;;;;;;4.68;2.60;;;;;;;;;;5020457;28;20025;-87
2023/04/16 04:27:21;;;;;;;6.18;3.40;;;;;;;;;;5018968;28;20958;-88
2023/04/16 04:29:47;;;;;;;6.82;3.45;;;;;;;;;;5020853;28;20025;-88
2023/04/16 04:32:13;;;;;;;5.05;2.70;;;;;;;;;;5017664;28;20098;-87
2023/04/16 04:34:39;;;;;;;5.05;3.25;;;;;;;;;;5017285;28;20025;-89
2023/04/16 04:37:05;;;;;;;6.28;3.42;;;;;;;;;;5008497;28;20516;-91
2023/04/16 04:39:31;;;;;;;4.70;2.78;;;;;;;;;;5013893;28;20034;-90
2023/04/16 04:41:57;;;;;;;5.82;3.00;;;;;;;;;;5025253;28;20030;-89
2023/04/16 04:44:23;;;;;;;6.93;3.35;;;;;;;;;;5019789;28;20034;-87
2023/04/16 04:46:49;;;;;;;6.55;3.33;;;;;;;;;;5012301;28;20033;-84
2023/04/16 04:49:15;;;;;;;5.40;3.17;;;;;;;;;;5019418;28;20033;-85
2023/04/16 04:51:41;;;;;;;6.47;3.30;;;;;;;;;;5011312;28;20030;-87
2023/04/16 04:54:07;;;;;;;5.88;3.40;;;;;;;;;;5028148;28;20041;-88
2023/04/16 04:56:33;;;;;;;7.18;3.92;;;;;;;;;;5015613;28;20037;-88
2023/04/16 04:58:59;;;;;;;5.85;3.20;;;;;;;;;;5020729;28;20502;-87
2023/04/16 05:01:25;;;;;;;5.10;3.13;;;;;;;;;;5021398;28;20021;-86
2023/04/16 05:03:51;;;;;;;5.47;3.28;;;;;;;;;;5018419;28;20121;-87
2023/04/16 05:06:17;;;;;;;5.57;3.10;;;;;;;;;;5021636;28;20097;-86
2023/04/16 05:08:43;;;;;;;5.15;3.45;;;;;;;;;;5019198;28;20050;-88
2023/04/16 05:11:09;;;;;;;6.70;3.80;;;;;;;;;;5021135;28;20063;-86
2023/04/16 05:13:35;;;;;;;6.75;3.70;;;;;;;;;;5018717;28;20029;-89
2023/04/16 05:16:01;;;;;;;7.13;3.70;;;;;;;;;;5019761;28;20034;-90
2023/04/16 05:18:27;;;;;;;8.05;3.75;;;;;;;;;;5001282;28;20267;-90
2023/04/16 05:20:54;;;;;;;7.57;4.05;;;;;;;;;;5013660;28;20022;-90
2023/04/16 05:23:20;;;;;;;7.00;4.22;;;;;;;;;;5016792;28;20109;-90
2023/04/16 05:25:46;;;;;;;7.28;3.88;;;;;;;;;;5017627;28;20022;-89
2023/04/16 05:28:15;;;;;;;7.03;3.92;;;;;;;;;;5013550;28;20061;-89
2023/04/16 05:30:41;;;;;;;6.47;3.83;;;;;;;;;;5009616;28;20049;-89
2023/04/16 05:33:07;;;;;;;9.20;4.65;;;;;;;;;;5020752;28;20030;-88
2023/04/16 05:35:33;;;;;;;7.65;4.30;;;;;;;;;;5026545;28;20029;-85
2023/04/16 05:37:59;;;;;;;6.85;4.07;;;;;;;;;;5025251;28;20107;-88
2023/04/16 05:40:25;;;;;;;6.95;4.30;;;;;;;;;;5016466;28;20444;-89
2023/04/16 05:42:51;;;;;;;8.02;4.80;;;;;;;;;;5014321;28;20026;-88
2023/04/16 05:45:18;;;;;;;9.15;5.05;;;;;;;;;;5010952;28;20026;-85
2023/04/16 05:47:44;;;;;;;8.13;4.60;;;;;;;;;;4998332;28;20026;-86
2023/04/16 05:50:10;;;;;;;9.68;5.55;;;;;;;;;;5008596;28;20038;-87
2023/04/16 05:52:36;;;;;;;9.77;5.57;;;;;;;;;;5010496;28;20451;-88
2023/04/16 05:55:02;;;;;;;9.13;5.25;;;;;;;;;;5014793;28;20040;-87
2023/04/16 05:57:29;;;;;;;10.00;6.10;;;;;;;;;;5010402;28;20026;-86
2023/04/16 05:59:55;;;;;;;11.40;6.60;;;;;;;;;;5014067;28;20026;-88
2023/04/16 06:02:21;;;;;;;11.57;5.60;;;;;;;;;;5014948;28;20377;-87
2023/04/16 06:04:48;;;;;;;19.13;7.82;;;;;;;;;;5010237;28;20113;-86
2023/04/16 06:07:14;;;;;;;9.40;5.88;;;;;;;;;;5021801;28;20034;-85
2023/04/16 06:09:40;;;;;;;10.25;5.68;;;;;;;;;;5014080;28;20189;-83
2023/04/16 06:12:14;;;;;;;9.85;5.75;;;;;;;;;;5010706;28;20025;-84
2023/04/16 06:14:40;;;;;;;9.95;5.50;;;;;;;;;;5026830;28;20018;-90
2023/04/16 06:17:06;;;;;;;9.93;6.43;;;;;;;;;;5023819;28;20049;-87
2023/04/16 06:19:32;;;;;;;10.60;6.18;;;;;;;;;;5011568;28;20027;-86
2023/04/16 06:22:01;;;;;;;10.55;6.65;;;;;;;;;;5016886;28;20030;-84
2023/04/16 06:24:27;;;;;;;9.35;5.97;;;;;;;;;;5005177;28;20041;-85
2023/04/16 06:26:53;;;;;;;10.50;6.68;;;;;;;;;;5021204;28;20021;-84
2023/04/16 06:29:19;;;;;;;11.82;7.18;;;;;;;;;;5018814;28;20034;-87
2023/04/16 06:31:48;;;;;;;11.13;7.32;;;;;;;;;;5018447;28;20067;-87
2023/04/16 06:34:14;;;;;;;10.18;6.68;;;;;;;;;;5013688;28;20065;-81
2023/04/16 06:36:40;;;;;;;13.15;7.82;;;;;;;;;;5018564;28;20098;-85
2023/04/16 06:39:10;;;;;;;11.13;7.18;;;;;;;;;;5020393;28;20263;-82
2023/04/16 06:41:39;;;;;;;11.23;6.80;;;;;;;;;;5019478;28;20030;-86
2023/04/16 06:44:08;;;;;;;12.02;7.35;;;;;;;;;;5008531;28;20034;-83
2023/04/16 06:46:34;;;;;;;10.88;6.70;;;;;;;;;;5021046;28;20056;-87
2023/04/16 06:49:00;;;;;;;11.18;6.70;;;;;;;;;;5017620;28;20225;-87
2023/04/16 06:51:26;;;;;;;13.13;6.75;;;;;;;;;;5013113;28;20100;-87
2023/04/16 06:53:52;;;;;;;9.73;6.35;;;;;;;;;;5010174;28;20038;-86
2023/04/16 06:56:18;;;;;;;11.27;6.90;;;;;;;;;;5026938;28;20118;-88
2023/04/16 06:58:44;;;;;;;10.43;6.45;;;;;;;;;;5005749;28;20049;-86
2023/04/16 07:01:10;;;;;;;12.43;6.47;;;;;;;;;;5010258;28;20733;-87
2023/04/16 07:03:36;;;;;;;11.35;6.53;;;;;;;;;;5013062;28;20037;-87
2023/04/16 07:06:02;;;;;;;10.13;6.47;;;;;;;;;;5011017;28;20307;-87
2023/04/16 07:08:28;;;;;;;14.88;8.45;;;;;;;;;;5014817;28;20034;-84
2023/04/16 07:10:57;;;;;;;15.27;9.10;;;;;;;;;;5010291;28;20030;-87
2023/04/16 07:13:23;;;;;;;9.73;6.20;;;;;;;;;;5006482;28;20034;-84
2023/04/16 07:15:52;;;;;;;9.38;6.05;;;;;;;;;;5012511;28;20219;-85
2023/04/16 07:18:18;;;;;;;8.90;6.13;;;;;;;;;;5006293;28;20037;-80
2023/04/16 07:20:44;;;;;;;8.38;5.70;;;;;;;;;;5009834;28;20030;-84
2023/04/16 07:23:13;;;;;;;9.32;5.63;;;;;;;;;;5010454;28;20083;-89
2023/04/16 07:25:40;;;;;;;9.98;6.10;;;;;;;;;;5015331;28;20495;-87
2023/04/16 07:28:06;;;;;;;9.65;5.68;;;;;;;;;;5014025;28;20042;-87
2023/04/16 07:30:35;;;;;;;9.48;5.45;;;;;;;;;;5018697;28;20028;-86
2023/04/16 07:33:07;;;;;;;9.07;5.70;;;;;;;;;;5019956;28;20022;-87
2023/04/16 07:35:33;;;;;;;9.15;6.10;;;;;;;;;;5021247;28;20097;-87
2023/04/16 07:37:59;;;;;;;9.32;5.93;;;;;;;;;;5023212;28;20527;-86
2023/04/16 07:40:25;;;;;;;9.25;5.63;;;;;;;;;;5018767;28;20033;-88
2023/04/16 07:42:51;;;;;;;10.55;6.38;;;;;;;;;;5014632;28;20123;-82
2023/04/16 07:45:21;;;;;;;9.52;5.95;;;;;;;;;;5020782;28;20034;-84
2023/04/16 07:47:47;;;;;;;9.07;5.40;;;;;;;;;;5021705;28;20116;-84
2023/04/16 07:50:13;;;;;;;8.68;5.10;;;;;;;;;;5021468;28;20022;-86
2023/04/16 07:52:41;;;;;;;9.07;5.00;;;;;;;;;;5020125;28;20094;-86
2023/04/16 07:55:07;;;;;;;8.85;5.20;;;;;;;;;;5019063;28;20094;-86
2023/04/16 07:57:34;;;;;;;7.38;4.68;;;;;;;;;;5022795;28;20030;-83
2023/04/16 08:00:03;;;;;;;9.65;5.63;;;;;;;;;;5025648;28;20023;-84
2023/04/16 08:02:30;;;;;;;9.32;5.63;;;;;;;;;;5023437;28;20036;-87
2023/04/16 08:04:56;;;;;;;9.55;6.30;;;;;;;;;;5021180;28;20034;-86
2023/04/16 08:07:22;;;;;;;9.20;5.45;;;;;;;;;;5020883;28;20499;-87
2023/04/16 08:09:48;;;;;;;9.75;5.40;;;;;;;;;;5017047;28;20030;-85
2023/04/16 08:12:16;;;;;;;10.38;5.32;;;;;;;;;;5020999;28;20045;-86
2023/04/16 08:14:42;;;;;;;7.68;5.10;;;;;;;;;;5019810;28;20029;-88
2023/04/16 08:17:08;;;;;;;21.95;9.85;;;;;;;;;;5026325;28;20030;-91
2023/04/16 08:19:34;;;;;;;9.68;6.13;;;;;;;;;;5025306;28;20026;-87
2023/04/16 08:22:00;;;;;;;8.95;5.40;;;;;;;;;;5024298;28;20566;-88
2023/04/16 08:24:26;;;;;;;12.05;6.25;;;;;;;;;;5024210;28;20053;-84
2023/04/16 08:26:52;;;;;;;9.85;6.13;;;;;;;;;;5027319;28;20506;-86
2023/04/16 08:29:19;;;;;;;9.52;5.57;;;;;;;;;;5026433;28;20029;-88
2023/04/16 08:31:45;;;;;;;8.75;5.13;;;;;;;;;;5022307;28;20034;-86
2023/04/16 08:34:12;;;;;;;10.30;5.57;;;;;;;;;;5020833;28;20047;-85
2023/04/16 08:36:38;;;;;;;8.73;5.47;;;;;;;;;;5016186;28;20034;-89
2023/04/16 08:39:04;;;;;;;11.00;5.95;;;;;;;;;;5021030;28;20018;-88
2023/04/16 08:41:35;;;;;;;11.52;6.20;;;;;;;;;;5023309;28;20034;-87
2023/04/16 08:44:04;;;;;;;9.27;5.72;;;;;;;;;;5024092;28;20030;-87
2023/04/16 08:46:31;;;;;;;11.55;6.10;;;;;;;;;;5020501;28;20041;-87
2023/04/16 08:48:58;;;;;;;10.85;6.10;;;;;;;;;;5021920;28;20030;-85
2023/04/16 08:51:26;;;;;;;10.48;6.05;;;;;;;;;;5014915;28;20038;-85
2023/04/16 08:53:52;;;;;;;8.73;5.53;;;;;;;;;;5025179;28;20029;-89
2023/04/16 08:56:23;;;;;;;9.63;5.70;;;;;;;;;;5030752;28;20050;-86
2023/04/16 08:58:50;;;;;;;8.68;5.68;;;;;;;;;;5012381;28;20030;-88
2023/04/16 09:01:16;;;;;;;9.13;5.55;;;;;;;;;;5008228;28;20035;-87
2023/04/16 09:03:44;;;;;;;9.05;5.53;;;;;;;;;;5019482;28;20030;-87
2023/04/16 09:06:11;;;;;;;10.15;5.53;;;;;;;;;;5013760;28;20026;-82
2023/04/16 09:08:40;;;;;;;7.72;4.75;;;;;;;;;;5022618;28;20543;-82
2023/04/16 09:11:09;;;;;;;7.50;4.70;;;;;;;;;;5024741;28;20048;-84
2023/04/16 09:13:37;;;;;;;8.40;5.15;;;;;;;;;;5032626;28;20061;-84
2023/04/16 09:16:03;;;;;;;8.75;5.22;;;;;;;;;;5013452;28;20062;-87
2023/04/16 09:18:30;;;;;;;8.02;4.55;;;;;;;;;;5033336;28;20798;-85
2023/04/16 09:20:56;;;;;;;7.53;4.88;;;;;;;;;;5027321;28;20010;-83
2023/04/16 09:23:23;;;;;;;8.43;4.57;;;;;;;;;;5028926;28;20041;-83
2023/04/16 09:26:09;;;;;;;8.25;4.68;;;;;;;;;;5031290;28;20053;-88
2023/04/16 09:28:58;;;;;;;7.75;4.65;;;;;;;;;;5032793;28;20029;-87
2023/04/16 09:31:26;;;;;;;8.23;4.35;;;;;;;;;;5023406;28;20515;-90
2023/04/16 09:34:02;;;;;;;7.90;4.97;;;;;;;;;;5017604;28;20045;-83
2023/04/16 09:36:31;;;;;;;8.93;4.53;;;;;;;;;;5025848;28;20048;-87
2023/04/16 09:38:58;;;;;;;8.45;4.63;;;;;;;;;;5026006;28;22743;-87
2023/04/16 09:41:47;;;;;;;7.75;4.60;;;;;;;;;;5024749;28;20050;-82
2023/04/16 09:44:21;;;;;;;7.32;4.65;;;;;;;;;;5025285;28;20030;-84
2023/04/16 09:46:50;;;;;;;6.63;4.45;;;;;;;;;;5028903;28;20034;-83
2023/04/16 09:49:17;;;;;;;7.22;4.50;;;;;;;;;;5029973;28;20026;-87
2023/04/16 09:52:06;;;;;;;7.10;4.47;;;;;;;;;;5032994;28;20048;-82
2023/04/16 09:54:32;;;;;;;7.22;4.30;;;;;;;;;;5021358;28;20022;-85
2023/04/16 09:57:00;;;;;;;5.97;3.90;;;;;;;;;;5030502;28;20347;-87
2023/04/16 09:59:32;;;;;;;6.10;4.03;;;;;;;;;;5007174;28;20050;-87
2023/04/16 10:04:51;;;;;;;8.52;4.63;;;;;;;;;;5015386;28;20042;-90
2023/04/16 10:07:18;;;;;;;6.90;4.13;;;;;;;;;;5022528;28;20078;-86
2023/04/16 10:09:43;;;;;;;8.35;4.50;;;;;;;;;;5022892;28;20030;-88
2023/04/16 10:12:11;;;;;;;8.10;4.47;;;;;;;;;;5022998;28;20052;-86
2023/04/16 10:14:37;;;;;;;7.80;4.05;;;;;;;;;;5023327;28;20038;-87
2023/04/16 10:17:05;;;;;;;7.45;4.13;;;;;;;;;;5017537;28;20049;-89
2023/04/16 10:19:31;;;;;;;9.10;4.70;;;;;;;;;;5021656;28;20022;-87
2023/04/16 10:21:57;;;;;;;12.13;6.32;;;;;;;;;;5022293;28;20065;-87
2023/04/16 10:24:24;;;;;;;6.30;4.00;;;12.50;99.90;;;;;;5020165;28;20098;-89
2023/04/16 10:26:51;;;;;;;6.55;4.10;;;;;;;;;;5025355;28;20022;-86
2023/04/16 10:29:21;;;;;;;6.75;4.00;;;12.60;99.90;;;;;;5024395;28;20025;-83
2023/04/16 10:31:47;;;;;;;6.17;3.80;;;;;;;;;;5016043;28;20026;-87
2023/04/16 10:34:14;;;;;;;10.07;5.53;;;;;;;;;;5018560;28;20034;-89
2023/04/16 10:36:40;;;;;;;7.35;4.07;;;;;;;;;;5015714;28;20041;-86
2023/04/16 10:39:10;;;;;;;7.00;4.60;;;;;;;;;;5019018;28;20018;-86
2023/04/16 10:41:39;;;;;;;8.35;4.82;;;;;;;;;;5010764;28;20041;-87
2023/04/16 10:44:08;;;;;;;8.23;4.68;;;;;;;;;;5022041;28;20041;-85
2023/04/16 10:46:37;;;;;;;7.78;4.63;;;;;;;;;;5017935;28;20010;-85
2023/04/16 10:49:14;;;;;;;7.63;4.50;;;;;;;;;;5019420;28;20034;-85
2023/04/16 10:51:41;;;;;;;9.40;4.70;;;;;;;;;;5018543;28;20082;-86
2023/04/16 10:54:11;;;;;;;6.35;4.22;;;;;;;;;;5023499;28;20106;-84
2023/04/16 10:56:37;;;;;;;8.23;4.65;;;;;;;;;;5016278;28;20034;-88
2023/04/16 10:59:07;;;;;;;7.95;4.82;;;;;;;;;;5022761;28;20128;-88
2023/04/16 11:01:37;;;;;;;7.47;4.30;;;;;;;;;;5023901;28;20029;-85
2023/04/16 11:04:21;;;;;;;6.60;4.43;;;;;;;;;;5019335;28;20297;-87
2023/04/16 11:07:18;;;;;;;7.43;5.00;;;12.50;99.90;;;;;;5016671;28;20307;-91
2023/04/16 11:09:48;;;;;;;7.68;4.38;;;;;;;;;;5028451;28;20073;-86
2023/04/16 11:12:15;;;;;;;6.90;4.43;;;;;;;;;;5025793;28;20667;-89
2023/04/16 11:14:41;;;;;;;7.95;4.88;;;;;;;;;;5022303;28;20025;-86
2023/04/16 11:17:08;;;;;;;7.78;4.22;;;;;;;;;;5022328;28;20118;-87
2023/04/16 11:19:37;;;;;;;8.45;4.07;;;;;;;;;;5026579;28;20064;-89
2023/04/16 11:22:03;;;;;;;5.53;3.90;;;;;;;;;;5020713;28;20026;-86
2023/04/16 11:24:30;;;;;;;7.47;4.28;;;;;;;;;;5023173;28;20056;-87
2023/04/16 11:26:56;;;;;;;7.53;4.43;;;;;;;;;;5023587;28;20030;-84
2023/04/16 11:29:22;;;;;;;6.53;4.53;;;;;;;;;;5019925;28;20045;-85
2023/04/16 11:31:52;;;;;;;10.30;5.25;;;;;;;;;;5024550;28;20074;-88
2023/04/16 11:34:18;;;;;;;5.65;3.70;;;;;;;;;;5026686;28;20010;-87
2023/04/16 11:36:45;;;;;;;7.45;4.60;;;;;;;;;;5035665;28;20034;-88
2023/04/16 11:39:11;;;;;;;7.40;4.35;;;;;;;;;;5019802;28;20102;-88
2023/04/16 11:41:47;;;;;;;6.57;4.22;;;;;;;;;;5021899;28;20030;-88
2023/04/16 11:44:24;;;;;;;6.85;3.80;;;;;;;;;;5017750;28;20025;-90
2023/04/16 11:46:50;;;;;;;6.75;3.90;;;;;;;;;;5018679;28;20018;-87
2023/04/16 11:49:16;;;;;;;6.72;4.22;;;;;;;;;;5021638;28;20044;-86
2023/04/16 11:51:46;;;;;;;6.45;4.03;;;;;;;;;;5019423;28;20037;-85
2023/04/16 11:54:19;;;;;;;7.32;4.20;;;;;;;;;;5014790;28;20072;-88
2023/04/16 11:56:46;;;;;;;6.22;3.92;;;;;;;;;;5022616;28;20045;-90
2023/04/16 11:59:16;;;;;;;7.18;4.32;;;;;;;;;;5022758;28;20032;-88
2023/04/16 12:01:45;;;;;;;6.90;4.10;;;;;;;;;;5023545;28;20033;-88
2023/04/16 12:04:13;;;;;;;7.50;4.32;;;;;;;;;;5018851;28;20061;-86
2023/04/16 12:06:39;;;;;;;6.43;4.25;;;;;;;;;;5018176;28;20054;-87
2023/04/16 12:09:24;;;;;;;6.80;4.13;;;;;;;;;;5022146;28;20006;-84
2023/04/16 12:11:50;;;;;;;6.18;3.95;;;;;;;;;;5018147;28;20113;-87
2023/04/16 12:14:20;;;;;;;7.15;4.38;;;;;;;;;;5019288;28;20230;-88
2023/04/16 12:16:52;;;;;;;7.20;4.47;;;;;;;;;;5027313;28;20045;-88
2023/04/16 12:19:18;;;;;;;6.07;4.22;;;;;;;;;;5030690;28;20015;-92
2023/04/16 12:21:50;;;;;;;7.72;4.47;;;;;;;;;;5032079;28;20030;-89
2023/04/16 12:24:23;;;;;;;6.35;3.97;;;;;;;;;;5031395;28;20017;-88
2023/04/16 12:26:55;;;;;;;5.75;3.80;;;;;;;;;;5031981;28;20499;-90
2023/04/16 12:29:22;;;;;;;5.72;4.00;;;;;;;;;;5027730;28;20027;-87
2023/04/16 12:31:57;;;;;;;6.68;4.22;;;;;;;;;;5026032;28;20018;-88
2023/04/16 12:34:23;;;;;;;7.68;4.50;;;;;;;;;;5041262;28;20013;-88
2023/04/16 12:37:03;;;;;;;7.47;3.88;;;;;;;;;;5028985;28;20026;-91
2023/04/16 12:39:29;;;;;;;6.20;4.15;;;;;;;;;;5045238;23;20022;-83
2023/04/16 12:41:55;;;;;;;6.43;3.95;;;;;;;;;;5027350;28;20091;-86
2023/04/16 12:44:21;;;;;;;6.38;3.85;;;;;;;;;;5027953;28;20022;-83
2023/04/16 12:46:47;;;;;;;6.90;4.15;;;;;;;;;;5027825;28;20407;-87
2023/04/16 12:49:14;;;;;;;5.65;3.70;;;;;;;;;;5014764;28;20094;-85
2023/04/16 12:51:40;;;;;;;7.32;4.40;;;;;;;;;;4999802;28;20040;-85
2023/04/16 12:54:06;;;;;;;5.95;3.80;;;;;;;;;;5007552;28;20061;-86
2023/04/16 12:56:33;;;;;;;8.73;5.15;;;;;;;;;;5005830;28;20101;-84
2023/04/16 12:58:59;;;;;;;7.43;4.88;;;;;;;;;;5010764;28;20133;-84
2023/04/16 13:01:25;;;;;;;6.55;4.20;;;;;;;;;;5004644;28;20124;-82
2023/04/16 13:03:51;;;;;;;13.02;7.25;;;;;;;;;;5005879;28;20022;-86
2023/04/16 13:06:17;;;;;;;5.78;3.83;;;;;;;;;;5008607;28;20026;-81
2023/04/16 13:08:44;;;;;;;9.27;4.10;;;14.60;99.90;;;;;;5002725;28;20030;-82
2023/04/16 13:11:10;;;;;;;6.53;4.38;;;;;;;;;;5022274;28;20110;-84
2023/04/16 13:13:36;;;;;;;6.97;4.28;;;;;;;;;;5004640;28;20099;-84
2023/04/16 13:16:07;;;;;;;7.18;4.43;;;;;;;;;;5006201;28;20038;-84
2023/04/16 13:18:33;;;;;;;;;;;15.00;99.90;;;;;;5010682;28;20038;-86
2023/04/16 13:20:59;;;;;;;7.15;4.40;;;;;;;;;;5009396;28;19914;-82
2023/04/16 13:23:25;;;;;;;6.40;3.80;;;;;;;;;;5006958;28;20030;-87
2023/04/16 13:25:51;;;;;;;6.47;3.83;;;;;;;;;;5006040;28;21019;-85
2023/04/16 13:28:17;;;;;;;6.43;4.03;;;;;;;;;;5012080;28;20034;-85
2023/04/16 13:30:45;;;;;;;7.40;4.35;;;;;;;;;;4996214;28;20034;-83
2023/04/16 13:33:12;;;;;;;6.65;4.00;;;;;;;;;;5024231;28;20034;-84
2023/04/16 13:35:38;;;;;;;5.78;3.33;;;;;;;;;;5016382;28;20084;-86
2023/04/16 13:38:04;;;;;;;6.57;4.00;;;;;;;;;;5015533;28;20022;-86
2023/04/16 13:40:30;;;;;;;6.90;4.25;;;;;;;;;;5016336;28;20538;-87
2023/04/16 13:42:56;;;;;;;7.63;4.40;;;;;;;;;;5016396;28;20110;-86
2023/04/16 13:45:23;;;;;;;5.75;3.70;;;;;;;;;;5018741;28;20022;-86
2023/04/16 13:47:49;;;;;;;6.72;4.45;;;;;;;;;;5017215;28;20026;-87
2023/04/16 13:50:15;;;;;;;9.07;5.05;;;;;;;;;;5016141;28;20026;-87
2023/04/16 13:52:41;;;;;;;6.18;3.65;;;;;;;;;;5014875;28;20033;-85
2023/04/16 13:55:08;;;;;;;5.85;3.78;;;;;;;;;;5015328;28;20025;-87
2023/04/16 13:57:34;;;;;;;6.85;4.13;;;;;;;;;;5014718;28;20093;-86
2023/04/16 14:00:03;;;;;;;6.47;3.88;;;;;;;;;;5011704;28;20624;-86
2023/04/16 14:02:29;;;;;;;7.38;3.70;;;;;;;;;;5018191;28;20026;-84
2023/04/16 14:04:55;;;;;;;6.05;4.03;;;;;;;;;;5016814;28;20056;-83
2023/04/16 14:07:25;;;;;;;6.90;3.75;;;;;;;;;;5008087;28;20117;-82
2023/04/16 14:09:51;;;;;;;6.82;4.03;;;;;;;;;;5007845;28;20032;-87
2023/04/16 14:12:17;;;;;;;5.80;3.60;;;;;;;;;;5014468;28;20121;-86
2023/04/16 14:14:43;;;;;;;6.15;3.55;;;;;;;;;;5013242;28;20033;-88
2023/04/16 14:17:09;;;;;;;5.63;3.60;;;;;;;;;;5011543;28;20133;-84
2023/04/16 14:19:35;;;;;;;6.60;4.00;;;;;;;;;;5011508;28;20072;-86
2023/04/16 14:22:01;;;;;;;6.72;3.88;;;;;;;;;;5007920;28;20030;-84
2023/04/16 14:24:27;;;;;;;6.82;3.90;;;;;;;;;;5013262;28;20030;-86
2023/04/16 14:26:56;;;;;;;7.38;4.30;;;;;;;;;;5026466;28;20032;-86
2023/04/16 14:29:22;;;;;;;6.85;4.10;;;;;;;;;;5014227;28;20033;-84
2023/04/16 14:31:49;;;;;;;6.40;4.10;;;;;;;;;;5010461;28;20113;-85
2023/04/16 14:34:15;;;;;;;7.28;4.55;;;;;;;;;;5025787;28;20026;-85
2023/04/16 14:36:44;;;;;;;6.85;4.25;;;;;;;;;;5012334;28;20026;-86
2023/04/16 14:39:10;;;;;;;6.97;4.38;;;;;;;;;;5017008;28;20029;-86
2023/04/16 14:41:36;;;;;;;13.60;8.07;;;;;;;;;;5011492;28;20049;-82
2023/04/16 14:44:04;;;;;;;9.43;5.75;;;;;;;;;;5013527;28;20034;-85
2023/04/16 14:46:32;;;;;;;7.97;4.53;;;;;;;;;;5010679;28;20589;-83